This is the latest recevied weather packets stored in our database for station/object KG4AGD. If no packets are shown the sender has not sent any weather packets the latest 1 day(s).
| Time | Temp. | Humidity | Pressure | Rain* | Wind** | Luminosity | Snow |
|---|---|---|---|---|---|---|---|
| 1778010827 | 26.67° C | 50% | 1016.5 hPa | 0 mm | 6.71 m/s, 173° | - | - |
| 1778010525 | 27.22° C | 47% | 1016.5 hPa | 0 mm | 3.13 m/s, 179° | - | - |
| 1778010223 | 27.22° C | 49% | 1016.5 hPa | 0 mm | 2.68 m/s, 161° | - | - |
| 1778009920 | 27.78° C | 47% | 1016.5 hPa | 0 mm | 3.13 m/s, 167° | - | - |
| 1778009618 | 26.67° C | 48% | 1016.5 hPa | 0 mm | 4.47 m/s, 217° | - | - |
| 1778009316 | 26.67° C | 50% | 1016.9 hPa | 0 mm | 4.02 m/s, 246° | - | - |
| 1778009014 | 26.67° C | 48% | 1016.9 hPa | 0 mm | 4.02 m/s, 166° | - | - |
| 1778008711 | 27.78° C | 46% | 1016.9 hPa | 0 mm | 5.36 m/s, 140° | - | - |
| 1778008409 | 27.78° C | 48% | 1016.9 hPa | 0 mm | 4.47 m/s, 251° | - | - |
| 1778008107 | 27.78° C | 47% | 1017.2 hPa | 0 mm | 4.92 m/s, 207° | - | - |
| 1778007805 | 27.22° C | 49% | 1017.2 hPa | 0 mm | 1.79 m/s, 187° | - | - |
| 1778007502 | 27.78° C | 48% | 1017.2 hPa | 0 mm | 2.68 m/s, 208° | - | - |
| 1778007200 | 27.22° C | 48% | 1017.2 hPa | 0 mm | 3.13 m/s, 196° | - | - |
| 1778006898 | 27.22° C | 48% | 1017.2 hPa | 0 mm | 3.13 m/s, 217° | - | - |
| 1778006595 | 27.22° C | 47% | 1017.2 hPa | 0 mm | 4.02 m/s, 174° | - | - |
| 1778006293 | 27.22° C | 49% | 1017.6 hPa | 0 mm | 3.58 m/s, 163° | - | - |
| 1778005991 | 27.22° C | 48% | 1017.6 hPa | 0 mm | 4.47 m/s, 169° | - | - |
| 1778005689 | 26.67° C | 48% | 1017.6 hPa | 0 mm | 4.02 m/s, 172° | - | - |
| 1778005387 | 27.22° C | 48% | 1017.6 hPa | 0 mm | 2.68 m/s, 175° | - | - |
| 1778005084 | 27.22° C | 49% | 1017.6 hPa | 0 mm | 4.92 m/s, 165° | - | - |
| 1778004782 | 26.67° C | 50% | 1017.6 hPa | 0 mm | 3.13 m/s, 241° | - | - |
| 1778004480 | 26.11° C | 51% | 1017.6 hPa | 0 mm | 2.68 m/s, 138° | - | - |
| 1778004178 | 27.22° C | 50% | 1017.9 hPa | 0 mm | 3.58 m/s, 206° | - | - |
| 1778003875 | 27.78° C | 49% | 1017.9 hPa | 0 mm | 4.47 m/s, 192° | - | - |
| 1778003573 | 27.22° C | 50% | 1017.9 hPa | 0 mm | 2.68 m/s, 157° | - | - |
* Rain since midnight (hover to see other rain measurements)
** Current wind speed in m/s (hover to see current wind gust speed)